SPKEA EPNT-EPNL
Flight info
| Callsign | SPKEA |
|---|---|
| Flight time | 0h 25m |
| Altitude | 5500 |
| Route | DCT EPNTA DCT 492710N0202542E 4937N02041E/N0090A020 DCT |
| Aircraft | C172/L-SBDGR/C |
Departure
| Time | 2026-04-24 16:35 |
|---|---|
| Airport | Nowy Targ Airfield (EPNT) |
Arrival
| Time | 2026-04-24 17:00 |
|---|---|
| Airport | Nowy Sącz-Łososina Dolna Airfield (EPNL) |
| Time | Latitude | Longitude | Altitude | Speed | Heading |
|---|---|---|---|---|---|
| 2026-04-24 16:17 | 49.46690 | 20.04775 | 1982 ft | 0 kts | 4° |
| 2026-04-24 16:28 | 49.46678 | 20.04831 | 1982 ft | 8 kts | 107° |
| 2026-04-24 16:29 | 49.46644 | 20.04876 | 1982 ft | 6 kts | 186° |
| 2026-04-24 16:29 | 49.46610 | 20.04871 | 1983 ft | 0 kts | 185° |
| 2026-04-24 16:29 | 49.46570 | 20.04866 | 1984 ft | 14 kts | 185° |
| 2026-04-24 16:30 | 49.46418 | 20.04851 | 1987 ft | 4 kts | 208° |
| 2026-04-24 16:30 | 49.46418 | 20.04756 | 1987 ft | 10 kts | 299° |
| 2026-04-24 16:30 | 49.46461 | 20.04636 | 1988 ft | 15 kts | 301° |
| 2026-04-24 16:31 | 49.46448 | 20.04624 | 1988 ft | 12 kts | 110° |
| 2026-04-24 16:31 | 49.46389 | 20.04782 | 1988 ft | 19 kts | 120° |
| 2026-04-24 16:31 | 49.46321 | 20.04956 | 1990 ft | 19 kts | 120° |
| 2026-04-24 16:31 | 49.46253 | 20.05134 | 1993 ft | 18 kts | 120° |
| 2026-04-24 16:32 | 49.46209 | 20.05247 | 1995 ft | 18 kts | 119° |
| 2026-04-24 16:32 | 49.46132 | 20.05449 | 2006 ft | 15 kts | 119° |
| 2026-04-24 16:32 | 49.46076 | 20.05591 | 2015 ft | 16 kts | 120° |
| 2026-04-24 16:32 | 49.46022 | 20.05735 | 2023 ft | 15 kts | 120° |
| 2026-04-24 16:33 | 49.45968 | 20.05870 | 2031 ft | 3 kts | 133° |
| 2026-04-24 16:33 | 49.45961 | 20.05904 | 2033 ft | 4 kts | 314° |
| 2026-04-24 16:33 | 49.45963 | 20.05900 | 2032 ft | 0 kts | 304° |
| 2026-04-24 16:34 | 49.45993 | 20.05823 | 2028 ft | 25 kts | 300° |
| 2026-04-24 16:34 | 49.46150 | 20.05417 | 2039 ft | 59 kts | 304° |
| 2026-04-24 16:34 | 49.46372 | 20.04847 | 2163 ft | 64 kts | 303° |
| 2026-04-24 16:35 | 49.46594 | 20.04281 | 2342 ft | 59 kts | 304° |
| 2026-04-24 16:35 | 49.46809 | 20.03746 | 2498 ft | 62 kts | 302° |
| 2026-04-24 16:35 | 49.47023 | 20.03152 | 2669 ft | 63 kts | 299° |
| 2026-04-24 16:35 | 49.47218 | 20.02537 | 2825 ft | 65 kts | 301° |
| 2026-04-24 16:36 | 49.47394 | 20.01886 | 2919 ft | 70 kts | 280° |
| 2026-04-24 16:36 | 49.47227 | 20.01183 | 3040 ft | 74 kts | 233° |
| 2026-04-24 16:36 | 49.46802 | 20.00696 | 3139 ft | 80 kts | 213° |
| 2026-04-24 16:36 | 49.46268 | 20.00646 | 3266 ft | 81 kts | 155° |
| 2026-04-24 16:37 | 49.45876 | 20.01288 | 3351 ft | 83 kts | 119° |
| 2026-04-24 16:37 | 49.45571 | 20.02032 | 3459 ft | 85 kts | 118° |
| 2026-04-24 16:37 | 49.45363 | 20.02543 | 3543 ft | 85 kts | 118° |
| 2026-04-24 16:37 | 49.44908 | 20.03729 | 3540 ft | 106 kts | 116° |
| 2026-04-24 16:38 | 49.44548 | 20.04731 | 3694 ft | 104 kts | 115° |
| 2026-04-24 16:38 | 49.44213 | 20.05689 | 3893 ft | 100 kts | 114° |
| 2026-04-24 16:38 | 49.43888 | 20.06614 | 4087 ft | 97 kts | 114° |
| 2026-04-24 16:38 | 49.43739 | 20.07559 | 4285 ft | 90 kts | 79° |
| 2026-04-24 16:39 | 49.43859 | 20.08525 | 4426 ft | 94 kts | 68° |
| 2026-04-24 16:39 | 49.44039 | 20.09515 | 4547 ft | 99 kts | 69° |
| 2026-04-24 16:39 | 49.44238 | 20.10545 | 4681 ft | 103 kts | 69° |
| 2026-04-24 16:39 | 49.44430 | 20.11620 | 4809 ft | 104 kts | 67° |
| 2026-04-24 16:40 | 49.44654 | 20.12687 | 4939 ft | 106 kts | 66° |
| 2026-04-24 16:40 | 49.44881 | 20.13766 | 5073 ft | 107 kts | 68° |
| 2026-04-24 16:40 | 49.45083 | 20.14882 | 5208 ft | 107 kts | 69° |
| 2026-04-24 16:40 | 49.45304 | 20.15957 | 5330 ft | 106 kts | 65° |
| 2026-04-24 16:41 | 49.45518 | 20.17055 | 5410 ft | 110 kts | 68° |
| 2026-04-24 16:41 | 49.45703 | 20.18175 | 5484 ft | 112 kts | 72° |
| 2026-04-24 16:41 | 49.45914 | 20.19326 | 5522 ft | 115 kts | 66° |
| 2026-04-24 16:41 | 49.46173 | 20.20525 | 5517 ft | 119 kts | 66° |
| 2026-04-24 16:42 | 49.46424 | 20.21741 | 5515 ft | 122 kts | 71° |
| 2026-04-24 16:42 | 49.46598 | 20.23031 | 5503 ft | 124 kts | 80° |
| 2026-04-24 16:42 | 49.46579 | 20.24338 | 5507 ft | 121 kts | 89° |
| 2026-04-24 16:42 | 49.46518 | 20.25619 | 5507 ft | 119 kts | 90° |
| 2026-04-24 16:43 | 49.46460 | 20.26888 | 5506 ft | 119 kts | 91° |
| 2026-04-24 16:43 | 49.46368 | 20.28148 | 5505 ft | 119 kts | 92° |
| 2026-04-24 16:43 | 49.46277 | 20.29411 | 5506 ft | 119 kts | 91° |
| 2026-04-24 16:43 | 49.46204 | 20.30674 | 5505 ft | 119 kts | 90° |
| 2026-04-24 16:44 | 49.46127 | 20.31943 | 5503 ft | 120 kts | 92° |
| 2026-04-24 16:44 | 49.46017 | 20.33219 | 5503 ft | 119 kts | 93° |
| 2026-04-24 16:44 | 49.45907 | 20.34475 | 5509 ft | 117 kts | 93° |
| 2026-04-24 16:44 | 49.45805 | 20.35703 | 5510 ft | 116 kts | 93° |
| 2026-04-24 16:45 | 49.45728 | 20.36945 | 5513 ft | 115 kts | 88° |
| 2026-04-24 16:45 | 49.45679 | 20.38175 | 5511 ft | 117 kts | 92° |
| 2026-04-24 16:45 | 49.45553 | 20.39417 | 5504 ft | 119 kts | 95° |
| 2026-04-24 16:45 | 49.45429 | 20.40671 | 5503 ft | 118 kts | 91° |
| 2026-04-24 16:46 | 49.45356 | 20.41915 | 5504 ft | 117 kts | 90° |
| 2026-04-24 16:46 | 49.45303 | 20.43157 | 5506 ft | 115 kts | 78° |
| 2026-04-24 16:46 | 49.45531 | 20.44289 | 5508 ft | 111 kts | 62° |
| 2026-04-24 16:46 | 49.45828 | 20.45398 | 5507 ft | 111 kts | 61° |
| 2026-04-24 16:47 | 49.46128 | 20.46482 | 5509 ft | 111 kts | 58° |
| 2026-04-24 16:47 | 49.46603 | 20.47358 | 5503 ft | 106 kts | 34° |
| 2026-04-24 16:47 | 49.47194 | 20.48003 | 5513 ft | 104 kts | 28° |
| 2026-04-24 16:47 | 49.47791 | 20.48628 | 5511 ft | 105 kts | 27° |
| 2026-04-24 16:48 | 49.48363 | 20.49325 | 5514 ft | 105 kts | 34° |
| 2026-04-24 16:48 | 49.48915 | 20.50058 | 5515 ft | 106 kts | 35° |
| 2026-04-24 16:48 | 49.49455 | 20.50854 | 5516 ft | 107 kts | 36° |
| 2026-04-24 16:48 | 49.50023 | 20.51572 | 5517 ft | 106 kts | 30° |
| 2026-04-24 16:49 | 49.50607 | 20.52272 | 5514 ft | 107 kts | 33° |
| 2026-04-24 16:49 | 49.51163 | 20.53044 | 5512 ft | 108 kts | 36° |
| 2026-04-24 16:49 | 49.51699 | 20.53867 | 5509 ft | 108 kts | 37° |
| 2026-04-24 16:49 | 49.52249 | 20.54667 | 5506 ft | 109 kts | 36° |
| 2026-04-24 16:50 | 49.52625 | 20.55197 | 5509 ft | 113 kts | 36° |
| 2026-04-24 16:50 | 49.53418 | 20.56312 | 5504 ft | 118 kts | 36° |
| 2026-04-24 16:50 | 49.54030 | 20.57179 | 5502 ft | 119 kts | 36° |
| 2026-04-24 16:50 | 49.54640 | 20.58048 | 5505 ft | 119 kts | 36° |
| 2026-04-24 16:51 | 49.55249 | 20.58920 | 5507 ft | 120 kts | 36° |
| 2026-04-24 16:51 | 49.55846 | 20.59812 | 5506 ft | 121 kts | 40° |
| 2026-04-24 16:51 | 49.56406 | 20.60781 | 5506 ft | 122 kts | 41° |
| 2026-04-24 16:51 | 49.56989 | 20.61743 | 5507 ft | 121 kts | 38° |
| 2026-04-24 16:52 | 49.57574 | 20.62681 | 5504 ft | 122 kts | 42° |
| 2026-04-24 16:52 | 49.58132 | 20.63661 | 5508 ft | 121 kts | 38° |
| 2026-04-24 16:52 | 49.58754 | 20.64500 | 5511 ft | 119 kts | 31° |
| 2026-04-24 16:52 | 49.59434 | 20.65227 | 5509 ft | 119 kts | 28° |
| 2026-04-24 16:53 | 49.60083 | 20.66026 | 5510 ft | 121 kts | 34° |
| 2026-04-24 16:53 | 49.60735 | 20.66827 | 5505 ft | 117 kts | 32° |
| 2026-04-24 16:53 | 49.61337 | 20.67664 | 5508 ft | 119 kts | 38° |
| 2026-04-24 16:53 | 49.61935 | 20.68544 | 5504 ft | 114 kts | 28° |
| 2026-04-24 16:54 | 49.62601 | 20.69058 | 5321 ft | 105 kts | 4° |
| 2026-04-24 16:54 | 49.63296 | 20.68983 | 5080 ft | 102 kts | 346° |
| 2026-04-24 16:54 | 49.63990 | 20.68728 | 4831 ft | 103 kts | 339° |
| 2026-04-24 16:54 | 49.64653 | 20.68318 | 4580 ft | 102 kts | 335° |
| 2026-04-24 16:55 | 49.65295 | 20.67889 | 4329 ft | 101 kts | 334° |
| 2026-04-24 16:55 | 49.65944 | 20.67447 | 4074 ft | 102 kts | 334° |
| 2026-04-24 16:55 | 49.66602 | 20.67049 | 3825 ft | 105 kts | 340° |
| 2026-04-24 16:55 | 49.67311 | 20.66707 | 3577 ft | 109 kts | 342° |
| 2026-04-24 16:56 | 49.68043 | 20.66363 | 3472 ft | 108 kts | 342° |
| 2026-04-24 16:56 | 49.68759 | 20.66021 | 3484 ft | 108 kts | 342° |
| 2026-04-24 16:56 | 49.69475 | 20.65680 | 3479 ft | 108 kts | 342° |
| 2026-04-24 16:56 | 49.70185 | 20.65344 | 3483 ft | 108 kts | 342° |
| 2026-04-24 16:57 | 49.70906 | 20.64972 | 3482 ft | 108 kts | 338° |
| 2026-04-24 16:57 | 49.71586 | 20.64578 | 3312 ft | 105 kts | 338° |
| 2026-04-24 16:57 | 49.72252 | 20.64190 | 3075 ft | 101 kts | 339° |
| 2026-04-24 16:57 | 49.72944 | 20.63943 | 2680 ft | 106 kts | 0° |
| 2026-04-24 16:58 | 49.73588 | 20.64477 | 2345 ft | 107 kts | 38° |
| 2026-04-24 16:58 | 49.74038 | 20.65142 | 2307 ft | 73 kts | 32° |
| 2026-04-24 16:58 | 49.74439 | 20.65564 | 2196 ft | 74 kts | 27° |
| 2026-04-24 16:58 | 49.74851 | 20.65916 | 2144 ft | 59 kts | 359° |
| 2026-04-24 16:59 | 49.75208 | 20.65690 | 2005 ft | 62 kts | 319° |
| 2026-04-24 16:59 | 49.75474 | 20.65187 | 1902 ft | 61 kts | 310° |
| 2026-04-24 16:59 | 49.75660 | 20.64003 | 1540 ft | 77 kts | 249° |
| 2026-04-24 17:00 | 49.75272 | 20.63376 | 1229 ft | 82 kts | 220° |
| 2026-04-24 17:00 | 49.74472 | 20.62258 | 817 ft | 54 kts | 223° |
| 2026-04-24 17:00 | 49.74317 | 20.62034 | 823 ft | 12 kts | 234° |
| 2026-04-24 17:01 | 49.74372 | 20.62089 | 821 ft | 10 kts | 0° |
| 2026-04-24 17:01 | 49.74446 | 20.62086 | 821 ft | 11 kts | 359° |
| 2026-04-24 17:02 | 49.74585 | 20.62166 | 818 ft | 13 kts | 40° |
| 2026-04-24 17:02 | 49.74654 | 20.62214 | 817 ft | 3 kts | 85° |
| 2026-04-24 17:02 | 49.74654 | 20.62215 | 817 ft | 0 kts | 105° |